Aérodrome :
LOGIN :

S'inscrire | Disclaimer

   EN    FR    IT 

 










Légende :    VFR   VFR Marginal   IFR   IFR Intensif   IFR Très Intensif
Visi : 
Plafond : 
>= 8 km
>= 3000ft
5 à 8 km
1000 à 3000 ft
1500m à 5 km
500 à 1000 ft
800 à 1500m
200 à 500 ft
< 800m
< 200 ft
Symboles :   Orages  Brouillard  Fortes neiges  Fortes précipitations  Vent > 20 kt
SIGMETs :   Divers  Orages  Givrage  Turbulence  Onde Orograph.  Cendres Volcan.






- Altitude de l'aérodrome : 458 ft


LFSI - St-Dizier

DERNIER METAR :
  • 091900Z AUTO 34006KT 320V020 8000 OVC005 M00/M01 Q1005

METARs EXPIRÉS :
  • 091830Z AUTO 34005KT 310V010 8000 OVC005 M00/M01 Q1005
  • 091800Z AUTO 32006KT 7000 OVC005 M00/M01 Q1005
  • 091730Z AUTO 32005KT 7000 OVC006 M00/M01 Q1005
  • 091700Z AUTO 33006KT 8000 OVC007 00/M01 Q1005
  • 091630Z AUTO 30004KT 7000 OVC008 00/M01 Q1005

TAF TAF LFSI
Valide du 09 à 15h jusqu'au 10 à 15h UTC


091400Z 0915/1015 36007KT 9999 SCT010 BKN012
BECMG 0917/0920 BKN008
TEMPO 0921/1009 2000 BR BKN003 BKN005
PROB30
TEMPO 1003/1008 0600 FZFG VV///
BECMG 1009/1010 BKN008
BECMG 1012/1014 BKN012



MET'MAP, la Météo Aéronautique d'un coup d'oeil ! - Copyright ORBIFLY Décembre 2007 - Disclaimer

ORBIFLY MET'MAP TEAM :

Programmation & Développement : Alexandra Zaïnal
Sur une idée originale de : Baudouin d'Aumeries
Soutien technique & logistique : Manuel Goepfert
Assistance : Marc-Olivier Méhu




SOURCES & CREDITS :

   NOAA